Time;durP1;ratioP1;P1;durP2;ratioP2;P2;SDS_P1;SDS_P2;PMS_P1;PMS_P2;Temp;Humidity;BMP_temperature;BMP_pressure;BME280_temperature;BME280_humidity;BME280_pressure;Samples;Min_cycle;Max_cycle;Signal;HPM_P1;HPM_P2
2023/06/05 00:00:00;;;;;;;6.62;2.22;;;;;;;10.40;51.69;101419.25;1763507;81;21347;-57
2023/06/05 00:03:06;;;;;;;3.27;2.27;;;;;;;10.33;51.82;101418.98;1762988;81;21251;-57
2023/06/05 00:06:12;;;;;;;6.53;2.40;;;;;;;10.31;52.01;101414.64;1763114;81;21704;-56
2023/06/05 00:09:18;;;;;;;6.45;2.22;;;;;;;10.28;52.12;101425.41;1763004;81;21173;-56
2023/06/05 00:12:23;;;;;;;8.35;2.92;;;;;;;10.25;52.25;101425.70;1762930;81;21267;-55
2023/06/05 00:15:33;;;;;;;4.67;2.45;;;;;;;10.25;52.47;101421.59;1763177;81;21390;-56
2023/06/05 00:18:39;;;;;;;4.67;2.60;;;;;;;10.27;52.68;101415.97;1761417;80;21336;-57
2023/06/05 00:21:45;;;;;;;7.20;2.22;;;;;;;10.27;52.83;101408.63;1763292;81;21390;-57
2023/06/05 00:24:51;;;;;;;6.00;2.12;;;;;;;10.25;52.84;101410.65;1762813;81;21335;-57
2023/06/05 00:27:57;;;;;;;7.47;1.90;;;;;;;10.22;52.89;101423.27;1762406;81;21378;-57
2023/06/05 00:31:03;;;;;;;6.45;2.60;;;;;;;10.21;53.03;101420.15;1762736;81;21378;-57
2023/06/05 00:34:10;;;;;;;4.67;2.05;;;;;;;10.15;53.14;101420.75;1762798;81;21208;-57
2023/06/05 00:37:18;;;;;;;7.67;2.10;;;;;;;10.07;53.05;101413.78;1762730;81;21342;-56
2023/06/05 00:40:24;;;;;;;5.80;2.25;;;;;;;9.97;52.97;101410.16;1762645;81;21366;-56
2023/06/05 00:43:30;;;;;;;9.73;1.92;;;;;;;9.87;52.97;101412.56;1742570;81;21370;-56
2023/06/05 00:46:37;;;;;;;6.30;2.00;;;;;;;9.83;53.25;101420.19;1762603;81;21323;-57
2023/06/05 00:49:43;;;;;;;5.30;1.80;;;;;;;9.80;53.53;101420.48;1762587;81;21359;-56
2023/06/05 00:52:50;;;;;;;5.58;2.10;;;;;;;9.76;53.74;101416.33;1762591;81;21354;-57
2023/06/05 00:55:57;;;;;;;3.37;1.85;;;;;;;9.74;53.84;101408.77;1762698;81;21726;-57
2023/06/05 00:59:05;;;;;;;5.25;2.10;;;;;;;9.70;53.81;101403.25;1762719;81;21362;-56
2023/06/05 01:02:16;;;;;;;5.78;2.12;;;;;;;9.69;54.00;101401.50;1762585;81;21335;-57
2023/06/05 01:05:20;;;;;;;6.05;2.10;;;;;;;9.69;54.12;101406.13;1762735;81;21907;-56
2023/06/05 01:08:27;;;;;;;5.37;2.20;;;;;;;9.66;54.16;101398.19;1762608;80;21386;-57
2023/06/05 01:11:45;;;;;;;3.52;1.98;;;;;;;9.65;54.26;101401.94;1762769;81;21331;-57
2023/06/05 01:14:58;;;;;;;6.53;2.10;;;;;;;9.64;54.46;101401.06;1762592;81;21338;-57
2023/06/05 01:18:04;;;;;;;5.97;2.05;;;;;;;9.68;54.67;101405.25;1762067;80;21323;-57
2023/06/05 01:21:13;;;;;;;5.37;2.30;;;;;;;9.67;54.72;101398.04;1767779;80;21851;-58
2023/06/05 01:24:22;;;;;;;6.37;2.30;;;;;;;9.62;54.63;101394.91;1767608;81;21902;-55
2023/06/05 01:27:34;;;;;;;10.63;1.98;;;;;;;9.60;54.68;101397.41;1767823;80;21204;-57
2023/06/05 01:30:46;;;;;;;4.05;1.87;;;;;;;9.54;54.65;101407.06;1767006;81;21208;-56
2023/06/05 01:34:13;;;;;;;5.35;2.42;;;;;;;9.46;54.68;101402.82;1767796;81;21196;-56
2023/06/05 01:37:18;;;;;;;4.90;2.05;;;;;;;9.42;54.75;101410.09;1766815;81;21211;-56
2023/06/05 01:40:29;;;;;;;4.17;1.90;;;;;;;9.36;54.87;101406.05;1767568;81;21968;-56
2023/06/05 01:43:35;;;;;;;4.22;2.20;;;;;;;9.30;54.89;101402.52;1765645;80;21379;-56
2023/06/05 01:46:40;;;;;;;8.40;2.02;;;;;;;9.25;54.93;101406.19;1767801;81;21395;-55
2023/06/05 01:49:47;;;;;;;6.85;2.33;;;;;;;9.24;55.17;101403.59;1767779;81;21730;-56
2023/06/05 01:52:54;;;;;;;10.85;2.12;;;;;;;9.25;55.36;101402.08;1767768;80;21326;-56
2023/06/05 01:55:59;;;;;;;9.55;2.02;;;;;;;9.23;55.43;101402.72;1766144;80;21871;-57
2023/06/05 01:59:06;;;;;;;2.55;1.80;;;;;;;9.24;55.52;101402.23;1767750;80;21354;-56
2023/06/05 02:02:14;;;;;;;4.80;2.25;;;;;;;9.24;55.69;101407.20;1767696;81;21358;-57
2023/06/05 02:05:22;;;;;;;3.75;2.10;;;;;;;9.23;55.68;101405.98;1767986;80;21338;-57
2023/06/05 02:08:28;;;;;;;3.30;2.10;;;;;;;9.18;55.64;101405.53;1767771;80;21868;-56
2023/06/05 02:11:37;;;;;;;3.35;1.92;;;;;;;9.16;55.77;101408.41;1767962;81;21350;-56
2023/06/05 02:14:44;;;;;;;4.67;2.83;;;;;;;9.17;55.88;101397.83;1767405;81;21886;-56
2023/06/05 02:17:52;;;;;;;8.65;3.35;;;;;;;9.17;55.92;101400.56;1767751;81;21417;-57
2023/06/05 02:21:02;;;;;;;10.50;3.42;;;;;;;9.22;56.12;101408.33;1762849;80;21247;-56
2023/06/05 02:24:11;;;;;;;7.10;2.67;;;;;;;9.27;56.37;101396.48;1762601;81;22100;-56
2023/06/05 02:27:17;;;;;;;7.60;3.00;;;;;;;9.34;56.49;101408.05;1744988;81;21398;-56
2023/06/05 02:30:24;;;;;;;8.25;2.95;;;;;;;9.38;56.54;101405.41;1763058;81;21200;-56
2023/06/05 02:33:29;;;;;;;5.15;2.77;;;;;;;9.47;56.75;101403.17;1762971;80;21217;-56
2023/06/05 02:36:36;;;;;;;7.97;2.67;;;;;;;9.58;56.90;101411.72;1763239;81;21180;-57
2023/06/05 02:39:42;;;;;;;7.55;2.72;;;;;;;9.63;56.90;101413.02;1763857;81;21207;-57
2023/06/05 02:42:47;;;;;;;6.45;2.72;;;;;;;9.69;56.92;101401.50;1763002;80;21180;-57
2023/06/05 02:45:54;;;;;;;12.65;3.62;;;;;;;9.77;57.00;101410.34;1763165;81;21177;-56
2023/06/05 02:49:01;;;;;;;6.72;3.08;;;;;;;9.85;57.13;101408.61;1763127;81;21244;-56
2023/06/05 02:52:06;;;;;;;7.67;3.22;;;;;;;9.95;57.26;101409.96;1763132;81;21692;-56
2023/06/05 02:55:13;;;;;;;7.72;3.35;;;;;;;10.03;57.29;101415.06;1763015;81;21205;-57
2023/06/05 02:58:21;;;;;;;7.42;3.25;;;;;;;10.11;57.38;101411.12;1762974;81;21214;-57
2023/06/05 03:01:34;;;;;;;5.97;2.85;;;;;;;10.22;57.47;101405.97;1762817;80;21701;-56
2023/06/05 03:04:39;;;;;;;7.70;2.77;;;;;;;10.32;57.56;101415.86;1763332;81;21216;-56
2023/06/05 03:07:46;;;;;;;10.05;3.65;;;;;;;10.42;57.64;101413.97;1763491;80;21173;-56
2023/06/05 03:10:52;;;;;;;10.50;3.77;;;;;;;10.51;57.72;101414.42;1763447;81;21201;-56
2023/06/05 03:13:53;;;;;;;10.90;3.80;;;;;;;10.63;57.79;101407.39;1762967;80;21329;-57
2023/06/05 03:16:48;;;;;;;8.20;4.58;;;;;;;10.75;57.86;101410.30;1763294;80;21338;-55
2023/06/05 03:19:35;;;;;;;11.48;4.03;;;;;;;10.85;57.92;101409.22;1745073;81;21347;-56
2023/06/05 03:22:42;;;;;;;8.03;4.60;;;;;;;10.97;57.95;101405.78;1740461;82;21853;-56
2023/06/05 03:25:48;;;;;;;9.60;4.05;;;;;;;11.10;58.04;101403.54;1740570;81;21360;-56
2023/06/05 03:28:53;;;;;;;14.80;4.15;;;;;;;11.23;58.06;101408.11;1740452;82;21376;-55
2023/06/05 03:31:58;;;;;;;10.00;4.62;;;;;;;11.35;58.13;101400.88;1740656;82;21357;-56
2023/06/05 03:35:06;;;;;;;11.48;4.50;;;;;;;11.49;58.15;101402.22;1740747;82;21948;-56
2023/06/05 03:38:13;;;;;;;8.85;4.65;;;;;;;11.60;58.07;101403.36;1740878;82;21360;-57
2023/06/05 03:41:20;;;;;;;10.75;4.85;;;;;;;11.69;58.04;101404.67;1740475;81;21889;-56
2023/06/05 03:44:25;;;;;;;9.80;4.75;;;;;;;11.80;58.06;101396.20;1740548;81;21349;-56
2023/06/05 03:47:34;;;;;;;11.03;4.50;;;;;;;11.93;58.10;101399.89;1740613;82;21389;-56
2023/06/05 03:50:41;;;;;;;12.93;5.12;;;;;;;12.06;58.16;101407.20;1740486;82;21379;-56
2023/06/05 03:53:54;;;;;;;9.28;3.90;;;;;;;12.22;58.23;101411.44;1740559;81;21349;-57
2023/06/05 03:56:58;;;;;;;8.78;4.40;;;;;;;12.36;58.26;101408.59;1740451;81;21332;-57
2023/06/05 04:00:05;;;;;;;11.78;3.70;;;;;;;12.49;58.29;101415.39;1740589;81;21363;-57
2023/06/05 04:03:12;;;;;;;12.78;3.77;;;;;;;12.63;58.32;101413.91;1740724;82;21345;-58
2023/06/05 04:06:20;;;;;;;13.00;4.17;;;;;;;12.77;58.35;101422.40;1740563;82;21353;-57
2023/06/05 04:09:27;;;;;;;9.75;3.40;;;;;;;12.91;58.28;101418.15;1740766;82;21372;-57
2023/06/05 04:12:33;;;;;;;7.92;3.27;;;;;;;13.02;58.26;101421.50;1740420;81;21361;-57
2023/06/05 04:15:40;;;;;;;13.95;3.50;;;;;;;13.14;58.23;101418.81;1740316;82;21392;-58
2023/06/05 04:18:40;;;;;;;11.25;3.27;;;;;;;13.26;58.25;101422.95;1740501;82;21439;-57
2023/06/05 04:21:42;;;;;;;8.18;3.37;;;;;;;13.39;58.23;101417.84;1746176;81;21346;-56
2023/06/05 04:24:50;;;;;;;7.22;3.02;;;;;;;13.51;58.21;101424.72;1765214;81;21382;-57
2023/06/05 04:27:58;;;;;;;7.85;2.95;;;;;;;13.66;58.26;101421.30;1765073;81;21363;-56
2023/06/05 04:31:06;;;;;;;5.97;2.62;;;;;;;13.80;58.29;101418.73;1764893;80;21359;-56
2023/06/05 04:34:07;;;;;;;4.25;2.60;;;;;;;13.95;58.23;101422.55;1765217;80;21236;-57
2023/06/05 04:37:13;;;;;;;4.90;2.60;;;;;;;14.07;58.14;101428.03;1765349;80;21383;-56
2023/06/05 04:40:23;;;;;;;4.67;2.62;;;;;;;14.21;58.13;101430.59;1743713;81;21359;-57
2023/06/05 04:43:28;;;;;;;7.08;2.45;;;;;;;14.36;58.14;101434.41;1745348;81;21440;-56
2023/06/05 04:46:38;;;;;;;6.58;2.55;;;;;;;14.51;58.12;101424.37;1765148;81;21346;-56
2023/06/05 04:49:44;;;;;;;5.03;2.20;;;;;;;14.65;58.08;101426.43;1761886;80;21260;-56
2023/06/05 04:52:52;;;;;;;7.28;3.00;;;;;;;14.78;57.97;101419.30;1765476;80;21331;-56
2023/06/05 04:56:01;;;;;;;4.67;1.70;;;;;;;14.91;57.84;101423.73;1769214;79;21184;-56
2023/06/05 04:59:07;;;;;;;7.75;3.90;;;;;;;15.06;57.77;101433.51;1767966;80;21974;-56
2023/06/05 05:02:13;;;;;;;5.10;2.02;;;;;;;15.21;57.70;101429.45;1769086;80;21686;-57
2023/06/05 05:05:20;;;;;;;9.93;5.83;;;;;;;15.32;57.59;101420.25;1767869;80;21339;-57
2023/06/05 05:08:27;;;;;;;6.30;3.10;;;;;;;15.46;57.50;101429.16;1744253;81;21358;-60
2023/06/05 05:11:36;;;;;;;7.28;2.17;;;;;;;15.59;57.37;101428.56;1765945;79;21738;-56
2023/06/05 05:14:41;;;;;;;4.78;2.87;;;;;;;15.69;57.24;101422.30;1751113;80;21208;-57
2023/06/05 05:17:51;;;;;;;3.22;1.90;;;;;;;15.79;57.10;101416.85;1743371;80;21836;-57
2023/06/05 05:20:58;;;;;;;2.65;1.37;;;;;;;15.92;57.00;101427.31;1755839;79;21752;-56
2023/06/05 05:24:07;;;;;;;3.30;1.47;;;;;;;16.03;56.90;101422.18;1765102;80;21228;-54
2023/06/05 05:27:12;;;;;;;4.90;1.72;;;;;;;16.14;56.75;101418.97;1765459;79;21224;-55
2023/06/05 05:30:20;;;;;;;4.35;1.60;;;;;;;16.25;56.60;101418.52;1764746;80;21200;-56
2023/06/05 05:33:30;;;;;;;3.35;1.45;;;;;;;16.36;56.44;101416.68;1762016;80;21205;-57
2023/06/05 05:36:38;;;;;;;1.55;1.35;;;;;;;16.46;56.27;101416.44;1769726;79;21213;-56
2023/06/05 05:39:46;;;;;;;2.12;1.12;;;;;;;16.56;56.07;101417.55;1785292;79;21204;-55
2023/06/05 05:42:52;;;;;;;5.67;1.50;;;;;;;16.65;55.89;101417.27;1797827;79;21254;-55
2023/06/05 05:46:00;;;;;;;1.87;1.37;;;;;;;16.75;55.72;101415.61;1784941;79;21216;-59
2023/06/05 05:49:06;;;;;;;4.22;1.37;;;;;;;16.86;55.53;101420.66;1767303;80;21271;-58
2023/06/05 05:52:13;;;;;;;2.87;1.00;;;;;;;16.94;55.32;101423.33;1767554;79;22199;-58
2023/06/05 05:55:20;;;;;;;6.40;1.20;;;;;;;17.03;55.14;101417.50;1735854;81;21239;-56
2023/06/05 05:58:29;;;;;;;2.52;1.40;;;;;;;17.11;54.96;101411.03;1714924;82;21263;-62
2023/06/05 06:01:38;;;;;;;2.27;1.30;;;;;;;17.20;54.79;101414.01;1715607;83;21829;-54
2023/06/05 06:04:46;;;;;;;1.92;1.37;;;;;;;17.27;54.56;101413.55;1692215;83;21241;-57
2023/06/05 06:07:50;;;;;;;1.85;1.20;;;;;;;17.36;54.37;101414.62;1699079;83;21221;-57
2023/06/05 06:10:57;;;;;;;3.35;1.50;;;;;;;17.47;54.11;101412.77;1705325;82;21222;-57
2023/06/05 06:14:01;;;;;;;3.55;1.42;;;;;;;17.57;53.87;101414.70;1759548;81;22000;-57
2023/06/05 06:17:10;;;;;;;2.45;1.47;;;;;;;17.69;53.67;101406.73;1767625;79;21831;-58
2023/06/05 06:20:15;;;;;;;4.40;1.62;;;;;;;17.78;53.42;101408.31;1767057;79;21831;-57
2023/06/05 06:23:25;;;;;;;2.40;1.20;;;;;;;17.89;53.16;101407.27;1748866;80;21220;-56
2023/06/05 06:26:37;;;;;;;1.92;1.30;;;;;;;18.01;52.90;101412.27;1693273;82;21203;-56
2023/06/05 06:29:42;;;;;;;2.87;1.67;;;;;;;18.11;52.57;101408.09;1736095;81;21207;-54
2023/06/05 06:32:49;;;;;;;2.17;1.47;;;;;;;18.22;52.34;101410.33;1731053;81;21803;-58
2023/06/05 06:36:00;;;;;;;2.70;1.47;;;;;;;18.35;52.08;101407.67;1733540;81;21328;-57
2023/06/05 06:39:04;;;;;;;3.10;1.17;;;;;;;18.46;51.82;101414.08;1728628;81;21160;-61
2023/06/05 06:42:20;;;;;;;2.95;1.40;;;;;;;18.56;51.61;101418.75;1732015;80;21216;-58
2023/06/05 06:45:27;;;;;;;2.25;1.20;;;;;;;18.66;51.26;101420.61;1736772;81;21281;-56
2023/06/05 06:48:32;;;;;;;3.27;1.17;;;;;;;18.73;50.88;101420.14;1730639;81;21215;-57
2023/06/05 06:51:38;;;;;;;2.62;1.10;;;;;;;18.79;50.57;101420.70;1737226;81;21761;-58
2023/06/05 06:54:44;;;;;;;2.02;1.12;;;;;;;18.87;50.28;101422.45;1736363;81;21204;-61
2023/06/05 06:57:51;;;;;;;4.45;1.17;;;;;;;18.96;49.96;101422.63;1744772;81;21637;-57
2023/06/05 07:00:56;;;;;;;2.15;0.93;;;;;;;19.02;49.62;101419.90;1735615;81;21282;-57
2023/06/05 07:04:04;;;;;;;2.65;1.12;;;;;;;19.09;49.25;101421.33;1739846;81;21246;-59
2023/06/05 07:07:12;;;;;;;2.02;0.95;;;;;;;19.14;48.99;101421.02;1765353;81;21759;-61
2023/06/05 07:10:17;;;;;;;2.90;1.25;;;;;;;19.23;48.72;101410.05;1765693;81;21168;-56
2023/06/05 07:13:24;;;;;;;3.15;1.10;;;;;;;19.33;48.43;101414.73;1742422;80;21541;-57
2023/06/05 07:16:31;;;;;;;2.08;0.93;;;;;;;19.38;48.09;101413.27;1766607;81;21275;-59
2023/06/05 07:19:38;;;;;;;2.70;0.95;;;;;;;19.45;47.76;101417.77;1749842;81;21238;-57
2023/06/05 07:22:48;;;;;;;2.33;1.30;;;;;;;19.50;47.46;101406.89;1727284;81;21292;-58
2023/06/05 07:25:56;;;;;;;6.40;1.10;;;;;;;19.57;47.17;101419.42;1752039;80;21221;-57
2023/06/05 07:29:02;;;;;;;1.80;1.15;;;;;;;19.64;46.88;101408.64;1768688;81;21272;-57
2023/06/05 07:32:09;;;;;;;1.87;1.17;;;;;;;19.75;46.63;101403.85;1770384;80;21300;-56
2023/06/05 07:35:17;;;;;;;2.42;1.22;;;;;;;19.93;46.40;101406.86;1764948;80;21280;-57
2023/06/05 07:38:26;;;;;;;2.33;1.50;;;;;;;20.16;46.15;101411.53;1780302;79;21196;-56
2023/06/05 07:41:32;;;;;;;3.77;1.30;;;;;;;20.33;45.77;101405.85;1739820;81;21370;-57
2023/06/05 07:44:37;;;;;;;2.25;1.00;;;;;;;20.45;45.42;101401.90;1762428;79;21701;-57
2023/06/05 07:47:45;;;;;;;2.05;1.00;;;;;;;20.50;45.05;101404.89;1754916;79;21721;-58
2023/06/05 07:50:52;;;;;;;2.42;1.15;;;;;;;20.49;44.62;101408.73;1760453;81;21180;-57
2023/06/05 07:53:58;;;;;;;4.60;1.22;;;;;;;20.58;44.34;101402.72;1760008;81;21535;-58
2023/06/05 07:57:03;;;;;;;5.50;1.20;;;;;;;20.79;44.21;101393.27;1770828;79;21752;-57
2023/06/05 08:00:10;;;;;;;4.28;1.30;;;;;;;20.94;43.85;101399.45;1770049;81;21714;-55
2023/06/05 08:03:19;;;;;;;2.58;1.10;;;;;;;21.02;43.51;101397.86;1731314;82;21512;-58
2023/06/05 08:06:25;;;;;;;3.70;1.50;;;;;;;21.04;43.09;101405.42;1744848;81;21174;-56
2023/06/05 08:09:33;;;;;;;5.58;1.20;;;;;;;20.93;42.67;101409.41;1712861;83;21645;-56
2023/06/05 08:12:41;;;;;;;1.62;0.90;;;;;;;20.86;42.48;101411.34;1699050;83;21233;-56
2023/06/05 08:15:47;;;;;;;1.87;1.12;;;;;;;20.94;42.36;101413.37;1716671;82;21959;-57
2023/06/05 08:18:54;;;;;;;2.12;0.95;;;;;;;21.02;42.09;101414.56;1718896;82;21519;-56
2023/06/05 08:22:02;;;;;;;3.17;1.22;;;;;;;21.16;42.00;101406.47;1696484;82;21224;-58
2023/06/05 08:25:08;;;;;;;1.27;0.95;;;;;;;21.39;41.89;101401.78;1718625;82;21379;-60
2023/06/05 08:28:15;;;;;;;4.25;1.12;;;;;;;21.57;41.59;101404.14;1742940;81;21323;-57
2023/06/05 08:31:21;;;;;;;3.02;1.05;;;;;;;21.67;41.22;101412.88;1746072;81;21292;-56
2023/06/05 08:34:28;;;;;;;7.20;1.15;;;;;;;21.66;40.82;101409.76;1762290;79;21754;-56
2023/06/05 08:37:34;;;;;;;5.12;1.07;;;;;;;21.62;40.54;101398.76;1770108;80;21262;-57
2023/06/05 08:40:40;;;;;;;2.47;1.22;;;;;;;21.58;40.30;101408.62;1780648;79;21725;-57
2023/06/05 08:43:46;;;;;;;2.92;1.05;;;;;;;21.55;40.07;101403.50;1742816;81;21449;-58
2023/06/05 08:46:52;;;;;;;2.62;1.30;;;;;;;21.57;39.91;101399.95;1763711;80;21197;-57
2023/06/05 08:49:58;;;;;;;6.33;1.50;;;;;;;21.64;39.74;101409.68;1763307;79;21193;-56
2023/06/05 08:53:06;;;;;;;4.42;1.30;;;;;;;21.63;39.47;101414.39;1756254;81;21886;-57
2023/06/05 08:56:13;;;;;;;2.40;1.22;;;;;;;21.66;39.31;101402.79;1764330;79;21249;-58
2023/06/05 08:59:20;;;;;;;6.78;1.17;;;;;;;21.63;39.13;101406.03;1752537;81;21265;-58
2023/06/05 09:02:26;;;;;;;3.58;1.20;;;;;;;21.53;38.81;101393.66;1775528;79;21260;-60
2023/06/05 09:05:32;;;;;;;1.75;1.20;;;;;;;21.46;38.59;101396.48;1768328;79;21706;-60
2023/06/05 09:08:40;;;;;;;4.67;1.80;;;;;;;21.44;38.47;101405.59;1768838;80;21200;-60
2023/06/05 09:11:46;;;;;;;2.10;1.10;;;;;;;21.46;38.37;101393.70;1768763;79;21189;-60
2023/06/05 09:14:52;;;;;;;3.17;1.12;;;;;;;21.54;38.24;101394.84;1769592;81;21920;-59
2023/06/05 09:18:15;;;;;;;5.00;1.07;;;;;;;21.60;38.10;101397.25;1768882;81;21244;-58
2023/06/05 09:21:20;;;;;;;2.02;1.00;;;;;;;21.74;38.01;101388.59;1763780;81;21816;-58
2023/06/05 09:24:25;;;;;;;4.92;1.45;;;;;;;21.92;37.86;101383.16;1756584;80;21343;-59
2023/06/05 09:27:25;;;;;;;3.05;1.10;;;;;;;22.06;37.69;101381.97;1745168;80;21222;-59
2023/06/05 09:30:33;;;;;;;2.27;1.20;;;;;;;22.09;37.46;101377.33;1752321;80;21388;-56
2023/06/05 09:33:43;;;;;;;4.83;1.17;;;;;;;22.09;37.21;101383.44;1755035;80;21859;-57
2023/06/05 09:36:54;;;;;;;3.52;1.30;;;;;;;22.09;37.02;101389.02;1760323;80;21746;-61
2023/06/05 09:40:00;;;;;;;3.15;1.20;;;;;;;21.96;36.79;101386.34;1754620;80;21698;-57
2023/06/05 09:43:06;;;;;;;1.65;1.22;;;;;;;21.88;36.74;101382.44;1754328;80;21214;-57
2023/06/05 09:46:17;;;;;;;3.55;1.30;;;;;;;22.06;36.80;101380.57;1755670;79;21755;-59
2023/06/05 09:49:24;;;;;;;4.40;1.32;;;;;;;22.26;36.68;101372.58;1738736;82;21239;-57
2023/06/05 09:52:30;;;;;;;2.95;1.40;;;;;;;22.24;36.33;101365.83;1738503;82;21201;-59
2023/06/05 09:55:38;;;;;;;4.12;1.85;;;;;;;22.31;36.21;101367.17;1709836;82;21472;-57
2023/06/05 09:58:47;;;;;;;6.00;1.27;;;;;;;22.34;36.05;101366.71;1741688;81;21352;-54
2023/06/05 10:01:54;;;;;;;3.72;1.42;;;;;;;22.28;35.90;101364.84;1762788;79;21785;-56
2023/06/05 10:05:11;;;;;;;3.83;1.60;;;;;;;22.25;35.70;101359.73;1763874;80;21192;-54
2023/06/05 10:08:21;;;;;;;7.75;1.52;;;;;;;22.38;35.83;101370.73;1766607;80;21402;-54
2023/06/05 10:11:29;;;;;;;3.72;1.30;;;;;;;22.57;35.79;101358.03;1766778;81;22057;-54
2023/06/05 10:14:34;;;;;;;4.62;1.20;;;;;;;22.79;35.77;101357.03;1765892;80;21228;-54
2023/06/05 10:17:41;;;;;;;4.35;1.47;;;;;;;23.02;35.64;101354.41;1765317;80;21418;-54
2023/06/05 10:20:47;;;;;;;3.37;1.40;;;;;;;23.29;35.56;101352.45;1770422;80;21220;-55
2023/06/05 10:24:06;;;;;;;2.85;1.32;;;;;;;23.47;35.37;101349.63;1766614;79;21742;-56
2023/06/05 10:27:29;;;;;;;2.98;1.72;;;;;;;23.60;35.20;101340.20;1762456;79;21181;-55
2023/06/05 10:31:10;;;;;;;1.85;1.00;;;;;;;23.61;34.98;101347.48;1713588;81;21224;-56
2023/06/05 10:34:56;;;;;;;2.35;1.35;;;;;;;23.54;34.70;101338.36;1697518;83;21232;-55
2023/06/05 10:38:11;;;;;;;4.03;1.40;;;;;;;23.19;34.22;101342.37;1708716;83;21355;-55
2023/06/05 10:41:19;;;;;;;4.47;1.10;;;;;;;23.08;34.26;101333.91;1761554;81;21667;-54
2023/06/05 10:44:24;;;;;;;5.70;1.40;;;;;;;23.21;34.36;101330.95;1764029;81;21900;-54
2023/06/05 10:47:46;;;;;;;2.98;1.32;;;;;;;23.47;34.43;101322.22;1760846;79;21209;-54
2023/06/05 10:50:52;;;;;;;2.47;1.22;;;;;;;23.59;34.21;101321.16;1734532;81;21600;-57
2023/06/05 10:53:59;;;;;;;2.37;1.30;;;;;;;23.68;34.00;101326.42;1716560;83;21684;-54
2023/06/05 10:57:09;;;;;;;4.90;1.40;;;;;;;23.89;33.92;101311.36;1684765;84;21321;-54
2023/06/05 11:00:15;;;;;;;4.20;1.30;;;;;;;24.19;33.86;101323.35;1691988;83;21272;-53
2023/06/05 11:03:21;;;;;;;2.70;1.40;;;;;;;24.38;33.67;101317.95;1715666;83;21217;-52
2023/06/05 11:06:26;;;;;;;5.40;1.50;;;;;;;24.34;33.26;101320.91;1769103;80;21189;-52
2023/06/05 11:09:31;;;;;;;2.55;1.30;;;;;;;24.16;32.93;101315.98;1747812;81;21169;-53
2023/06/05 11:12:54;;;;;;;2.70;1.32;;;;;;;24.13;32.89;101308.07;1767142;79;21519;-52
2023/06/05 11:15:59;;;;;;;3.85;1.55;;;;;;;24.21;32.87;101308.58;1772543;79;21186;-52
2023/06/05 11:19:30;;;;;;;4.35;1.62;;;;;;;24.25;32.72;101302.78;1768198;79;21749;-51
2023/06/05 11:22:37;;;;;;;5.42;1.70;;;;;;;24.31;32.63;101302.38;1734763;81;21461;-50
2023/06/05 11:25:46;;;;;;;5.20;2.02;;;;;;;24.28;32.46;101309.30;1697777;83;21265;-47
2023/06/05 11:28:55;;;;;;;3.33;1.60;;;;;;;24.14;32.23;101305.03;1691988;83;21197;-46
2023/06/05 11:32:04;;;;;;;3.63;1.40;;;;;;;23.94;31.97;101307.30;1698805;83;21217;-53
2023/06/05 11:35:12;;;;;;;2.20;1.35;;;;;;;23.74;31.88;101306.75;1705707;82;22404;-47
2023/06/05 11:38:24;;;;;;;2.10;1.27;;;;;;;23.62;31.78;101301.68;1695186;83;21685;-49
2023/06/05 11:41:44;;;;;;;3.50;1.45;;;;;;;23.67;31.81;101296.77;1701975;82;21259;-53
2023/06/05 11:44:54;;;;;;;2.25;1.30;;;;;;;23.87;31.90;101293.09;1707395;82;21731;-55
2023/06/05 11:48:02;;;;;;;3.58;1.67;;;;;;;23.93;31.70;101294.37;1706499;82;21211;-48
2023/06/05 11:51:12;;;;;;;3.12;1.47;;;;;;;23.89;31.48;101295.11;1680170;83;21229;-47
2023/06/05 11:54:19;;;;;;;2.22;1.40;;;;;;;24.01;31.53;101285.67;1692787;83;21797;-46
2023/06/05 11:57:27;;;;;;;4.50;1.22;;;;;;;24.18;31.50;101278.25;1755282;80;21565;-46
2023/06/05 12:00:35;;;;;;;5.30;1.52;;;;;;;24.14;31.25;101291.04;1757558;81;21459;-47
2023/06/05 12:03:41;;;;;;;5.87;1.98;;;;;;;23.97;31.04;101287.27;1749945;81;21188;-49
2023/06/05 12:06:55;;;;;;;3.45;1.47;;;;;;;23.87;30.96;101277.70;1762514;79;22071;-49
2023/06/05 12:10:03;;;;;;;1.77;1.17;;;;;;;23.82;30.88;101278.44;1756415;81;21244;-50
2023/06/05 12:13:09;;;;;;;3.47;1.47;;;;;;;23.71;30.76;101278.40;1755465;81;21189;-52
2023/06/05 12:16:16;;;;;;;2.92;1.35;;;;;;;23.59;30.68;101277.83;1762770;80;21907;-49
2023/06/05 12:19:25;;;;;;;2.70;1.50;;;;;;;23.60;30.65;101273.96;1760192;81;21204;-49
2023/06/05 12:22:30;;;;;;;2.52;1.40;;;;;;;23.62;30.60;101276.52;1763122;80;21750;-50
2023/06/05 12:25:37;;;;;;;3.65;1.32;;;;;;;23.47;30.40;101281.69;1755939;81;21298;-49
2023/06/05 12:28:44;;;;;;;1.77;1.15;;;;;;;23.25;30.36;101283.27;1742255;81;21915;-49
2023/06/05 12:31:48;;;;;;;2.40;1.40;;;;;;;23.10;30.30;101275.88;1768183;79;21820;-50
2023/06/05 12:34:56;;;;;;;2.62;1.42;;;;;;;23.01;30.35;101275.33;1767484;80;21686;-49
2023/06/05 12:38:08;;;;;;;5.25;1.40;;;;;;;22.95;30.33;101281.87;1760041;79;21596;-49
2023/06/05 12:41:16;;;;;;;4.53;1.42;;;;;;;22.86;30.27;101271.25;1757626;79;21208;-50
2023/06/05 12:44:23;;;;;;;2.90;1.30;;;;;;;22.86;30.36;101274.05;1765074;79;21212;-49
2023/06/05 12:47:28;;;;;;;3.27;1.55;;;;;;;22.95;30.38;101272.62;1720601;82;21195;-48
2023/06/05 12:50:36;;;;;;;2.60;1.37;;;;;;;23.02;30.39;101270.61;1710311;83;21759;-49
2023/06/05 12:53:45;;;;;;;3.60;1.32;;;;;;;23.15;30.44;101253.67;1758453;79;21197;-49
2023/06/05 12:56:51;;;;;;;3.12;1.37;;;;;;;23.29;30.42;101260.80;1739760;81;21982;-49
2023/06/05 12:59:56;;;;;;;2.50;1.82;;;;;;;23.39;30.32;101268.05;1742780;79;21449;-51
2023/06/05 13:03:05;;;;;;;2.62;1.35;;;;;;;23.46;30.18;101254.83;1763532;79;21442;-49
2023/06/05 13:06:14;;;;;;;2.98;1.57;;;;;;;23.51;30.09;101253.58;1754964;79;21209;-48
2023/06/05 13:09:22;;;;;;;5.03;1.50;;;;;;;23.47;29.98;101243.41;1761807;79;21477;-47
2023/06/05 13:12:29;;;;;;;2.58;1.55;;;;;;;23.56;29.94;101253.72;1768636;80;21714;-48
2023/06/05 13:15:36;;;;;;;2.70;1.52;;;;;;;23.69;29.90;101245.66;1743707;81;21354;-48
2023/06/05 13:18:42;;;;;;;2.15;1.40;;;;;;;23.76;29.82;101240.78;1705186;84;21815;-48
2023/06/05 13:21:48;;;;;;;1.80;1.20;;;;;;;23.85;29.78;101241.59;1696396;82;21232;-47
2023/06/05 13:24:56;;;;;;;1.55;1.00;;;;;;;23.89;29.66;101237.23;1754647;80;21810;-49
2023/06/05 13:28:03;;;;;;;2.47;1.50;;;;;;;23.87;29.57;101240.81;1760765;79;21197;-49
2023/06/05 13:31:11;;;;;;;3.72;1.70;;;;;;;23.86;29.47;101239.11;1755389;79;21445;-47
2023/06/05 13:34:21;;;;;;;5.08;1.52;;;;;;;23.87;29.42;101232.41;1750479;80;21235;-47
2023/06/05 13:37:28;;;;;;;2.42;1.35;;;;;;;23.81;29.34;101230.59;1747778;80;21193;-48
2023/06/05 13:40:33;;;;;;;2.72;1.50;;;;;;;23.81;29.32;101226.93;1725523;82;21220;-46
2023/06/05 13:43:39;;;;;;;2.05;1.30;;;;;;;23.81;29.23;101231.98;1765708;79;21691;-50
2023/06/05 13:46:46;;;;;;;3.58;1.45;;;;;;;23.80;29.19;101219.08;1755067;80;21181;-47
2023/06/05 13:49:53;;;;;;;3.92;1.47;;;;;;;23.87;29.21;101224.02;1722939;82;21701;-50
2023/06/05 13:52:59;;;;;;;3.20;1.42;;;;;;;24.02;29.18;101215.19;1765666;80;21200;-48
2023/06/05 13:56:05;;;;;;;3.05;1.50;;;;;;;24.02;29.08;101220.24;1761275;80;21177;-48
2023/06/05 13:59:11;;;;;;;3.00;1.57;;;;;;;24.01;28.97;101225.52;1755064;79;21307;-46
2023/06/05 14:02:18;;;;;;;3.85;1.55;;;;;;;23.99;28.86;101219.87;1765465;80;21479;-55
2023/06/05 14:05:23;;;;;;;2.67;1.27;;;;;;;23.90;28.74;101220.73;1760334;80;21173;-53
2023/06/05 14:08:36;;;;;;;2.83;1.50;;;;;;;23.80;28.72;101216.28;1762599;79;21212;-53
2023/06/05 14:11:44;;;;;;;;;;;;;;;23.86;28.75;101209.75;1745922;79;21359;-53
2023/06/05 14:14:49;;;;;;;4.08;1.50;;;;;;;23.88;28.70;101204.73;1764232;79;20273;-55
2023/06/05 14:17:57;;;;;;;3.08;1.45;;;;;;;23.88;28.62;101203.91;1767806;79;21291;-54
2023/06/05 14:21:01;;;;;;;3.70;1.57;;;;;;;23.92;28.64;101203.17;1763378;79;21204;-54
2023/06/05 14:24:07;;;;;;;5.37;1.40;;;;;;;23.87;28.49;101204.45;1766784;80;21244;-53
2023/06/05 14:27:15;;;;;;;2.45;1.62;;;;;;;23.81;28.41;101198.97;1753340;81;21321;-55
2023/06/05 14:30:22;;;;;;;6.08;1.62;;;;;;;23.73;28.28;101200.19;1744379;80;21813;-54
2023/06/05 14:33:29;;;;;;;2.60;1.40;;;;;;;23.64;28.27;101194.66;1769275;80;21204;-54